LiveATC.Net - Listen to live air traffic control over the Internet!


ICAO: KGGE  IATA: GGE   Airport: Georgetown County Airport
City: Georgetown   State/Province: South Carolina
Country: United States   Continent: North America
KGGE METAR Weather: KGGE 241555Z AUTO 22014KT 10SM CLR 23/08 A3011 RMK AO2
KGGE ADS-B Flight Tracking  (ADSBExchange)
KGGE Flight Activity (FlightAware)
KGGE Airport Info   (iFlightPlanner)
KGGE VFR Sectional Chart   (iFlightPlanner) 
KGGE IFR Low Altitude Chart   (iFlightPlanner) 
KGGE IFR High Altitude Chart   (iFlightPlanner) 

KGGE CTAF
Feed Status: UP   Listeners: 0
Listen in your browser - HTML5 player (in browser, HTML5)
Click here to listen with your own player (launches your MP3 player)
Archive Access: KGGE CTAF
FacilityFrequency
Georgetown CTAF123.000

NOTICE

Unauthorized use prohibited. See LiveATC.net Terms of Service


Airport/ARTCC Code
Frequency Search
(e.g., 124.400, 128.75)
Site-wide search
 


Browse Feeds
Top 50 Feeds
HF Oceanic Feeds
Coverage Map
Bad Weather Areas

LiveATC FAQ

Increase Coverage

Contact LiveATC.net
Press Inquiries

LiveATC on iPhone
LiveATC on Android

LiveATC Mobile
(Mobile browser)

ATC Audio Archives
Interesting Recordings

LiveATC Forums


Home Page
About LiveATC.net


Terms of Use
Privacy Policy

AIRMETs/SIGMETs

FAA Airport Status
NAS Status
Arrival Demand


Server Software By:
Icecast.org
Liquidsoap